createdAt,value
2018-05-16T00:00:51.871Z,99225.11
2018-05-16T00:02:27.002Z,99219.33
2018-05-16T00:04:02.189Z,99211.77
2018-05-16T00:05:37.315Z,99213.35
2018-05-16T00:07:13.192Z,99222.69
2018-05-16T00:08:49.033Z,99213.63
2018-05-16T00:10:24.803Z,99210.45
2018-05-16T00:11:59.970Z,99211.14
2018-05-16T00:13:37.794Z,99209.40
2018-05-16T00:15:14.134Z,99216.36
2018-05-16T00:16:49.259Z,99217.73
2018-05-16T00:18:25.131Z,99217.89
2018-05-16T00:20:00.247Z,99220.42
2018-05-16T00:21:35.378Z,99222.69
2018-05-16T00:23:11.204Z,99220.33
2018-05-16T00:24:46.339Z,99226.92
2018-05-16T00:26:21.469Z,99224.66
2018-05-16T00:27:57.385Z,99232.91
2018-05-16T00:29:33.190Z,99229.42
2018-05-16T00:31:08.399Z,99234.37
2018-05-16T00:32:43.517Z,99229.35
2018-05-16T00:34:18.620Z,99229.72
2018-05-16T00:35:53.783Z,99232.67
2018-05-16T00:37:28.913Z,99234.42
2018-05-16T00:39:04.513Z,99237.73
2018-05-16T00:40:39.671Z,99230.28
2018-05-16T00:42:14.750Z,99226.75
2018-05-16T00:43:49.871Z,99229.81
2018-05-16T00:45:25.815Z,99225.23
2018-05-16T00:47:00.950Z,99225.60
2018-05-16T00:48:36.105Z,99228.78
2018-05-16T00:50:12.052Z,99226.06
2018-05-16T00:51:47.144Z,99233.51
2018-05-16T00:53:23.450Z,99226.70
2018-05-16T00:54:59.389Z,99229.30
2018-05-16T00:56:34.499Z,99225.03
2018-05-16T00:58:10.411Z,99224.34
2018-05-16T00:59:46.302Z,99225.17
2018-05-16T01:01:21.429Z,99227.12
2018-05-16T01:02:56.587Z,99230.77
2018-05-16T01:04:31.701Z,99224.05
2018-05-16T01:06:06.886Z,99222.75
2018-05-16T01:07:42.757Z,99226.48
2018-05-16T01:09:19.110Z,99227.93
2018-05-16T01:10:54.268Z,99229.19
2018-05-16T01:12:29.870Z,99223.37
2018-05-16T01:14:04.962Z,99220.44
2018-05-16T01:15:40.118Z,99225.87
2018-05-16T01:17:15.232Z,99227.39
2018-05-16T01:18:51.072Z,99232.09
2018-05-16T01:20:26.201Z,99221.96
2018-05-16T01:22:01.367Z,99228.22
2018-05-16T01:23:36.511Z,99228.75
2018-05-16T01:25:13.075Z,99217.98
2018-05-16T01:26:48.287Z,99216.89
2018-05-16T01:28:23.975Z,99216.41
2018-05-16T01:29:59.096Z,99214.73
2018-05-16T01:31:34.223Z,99209.66
2018-05-16T01:33:09.297Z,99212.08
2018-05-16T01:34:44.480Z,99213.81
2018-05-16T01:36:19.600Z,99213.40
2018-05-16T01:37:55.531Z,99216.94
2018-05-16T01:39:30.609Z,99215.08
2018-05-16T01:41:05.762Z,99213.40
2018-05-16T01:42:40.910Z,99212.53
2018-05-16T01:44:16.075Z,99209.05
2018-05-16T01:45:53.014Z,99205.03
2018-05-16T01:47:28.148Z,99204.23
2018-05-16T01:49:22.982Z,99203.87
2018-05-16T01:50:58.835Z,99208.21
2018-05-16T01:52:33.963Z,99206.94
2018-05-16T01:54:09.102Z,99205.52
2018-05-16T01:55:44.975Z,99205.55
2018-05-16T01:57:21.998Z,99212.23
2018-05-16T01:58:57.086Z,99211.13
2018-05-16T02:00:32.213Z,99216.73
2018-05-16T02:02:07.320Z,99209.23
2018-05-16T02:03:42.458Z,99210.48
2018-05-16T02:05:17.613Z,99210.50
2018-05-16T02:06:52.713Z,99203.97
2018-05-16T02:08:28.561Z,99205.70
2018-05-16T02:10:03.816Z,99203.22
2018-05-16T02:11:39.229Z,99203.95
2018-05-16T02:13:15.164Z,99203.84
2018-05-16T02:14:50.292Z,99211.86
2018-05-16T02:16:26.202Z,99207.53
2018-05-16T02:18:01.301Z,99214.34
2018-05-16T02:19:37.161Z,99214.29
2018-05-16T02:21:12.316Z,99216.55
2018-05-16T02:22:48.191Z,99215.95
2018-05-16T02:24:24.134Z,99217.42
2018-05-16T02:25:59.316Z,99213.30
2018-05-16T02:27:34.452Z,99212.29
2018-05-16T02:29:10.703Z,99213.31
2018-05-16T02:30:46.855Z,99215.63
2018-05-16T02:32:22.730Z,99209.27
2018-05-16T02:33:57.939Z,99211.80
2018-05-16T02:35:33.037Z,99210.73
2018-05-16T02:37:08.195Z,99212.66
2018-05-16T02:38:43.460Z,99208.20
2018-05-16T02:40:18.568Z,99209.04
2018-05-16T02:41:54.020Z,99208.69
2018-05-16T02:43:29.934Z,99208.20
2018-05-16T02:45:05.087Z,99209.95
2018-05-16T02:46:40.969Z,99200.13
2018-05-16T02:48:16.844Z,99201.55
2018-05-16T02:49:51.948Z,99205.72
2018-05-16T02:51:27.124Z,99203.98
2018-05-16T02:53:02.275Z,99207.84
2018-05-16T02:54:37.360Z,99213.84
2018-05-16T02:56:12.467Z,99219.77
2018-05-16T02:57:47.568Z,99221.77
2018-05-16T02:59:23.487Z,99192.23
2018-05-16T03:00:58.593Z,99225.41
2018-05-16T03:02:34.534Z,99228.47
2018-05-16T03:04:09.677Z,99234.91
2018-05-16T03:05:45.641Z,99235.95
2018-05-16T03:07:21.619Z,99243.45
2018-05-16T03:08:56.748Z,99245.02
2018-05-16T03:10:31.870Z,99250.50
2018-05-16T03:12:08.639Z,99247.02
2018-05-16T03:13:43.847Z,99252.37
2018-05-16T03:15:19.802Z,99249.29
2018-05-16T03:16:54.925Z,99252.56
2018-05-16T03:18:30.751Z,99252.05
2018-05-16T03:20:05.869Z,99256.20
2018-05-16T03:21:41.800Z,99258.95
2018-05-16T03:23:16.980Z,99250.53
2018-05-16T03:24:52.090Z,99250.13
2018-05-16T03:26:27.187Z,99254.34
2018-05-16T03:28:03.040Z,99249.34
2018-05-16T03:29:38.184Z,99249.22
2018-05-16T03:31:13.290Z,99255.56
2018-05-16T03:32:48.976Z,99252.30
2018-05-16T03:34:24.849Z,99256.01
2018-05-16T03:36:04.210Z,99253.11
2018-05-16T03:37:39.315Z,99246.27
2018-05-16T03:39:15.208Z,99246.10
2018-05-16T03:40:50.340Z,99246.33
2018-05-16T03:42:25.453Z,99247.03
2018-05-16T03:44:01.391Z,99244.58
2018-05-16T03:45:36.496Z,99252.57
2018-05-16T03:47:12.361Z,99246.03
2018-05-16T03:48:47.494Z,99249.23
2018-05-16T03:50:23.321Z,99249.45
2018-05-16T03:51:59.260Z,99246.61
2018-05-16T03:53:34.320Z,99241.36
2018-05-16T03:55:09.454Z,99236.19
2018-05-16T03:56:45.356Z,99241.27
2018-05-16T03:58:38.116Z,99240.19
2018-05-16T04:00:31.782Z,99236.03
2018-05-16T04:02:24.715Z,99239.16
2018-05-16T04:04:17.628Z,99238.63
2018-05-16T04:05:52.790Z,99221.47
2018-05-16T04:07:29.869Z,99241.49
2018-05-16T04:09:05.691Z,99237.56
2018-05-16T04:10:41.772Z,99239.97
2018-05-16T04:12:16.892Z,99240.14
2018-05-16T04:13:52.753Z,99241.52
2018-05-16T04:15:27.877Z,99240.27
2018-05-16T04:17:03.030Z,99243.33
2018-05-16T04:18:38.167Z,99240.86
2018-05-16T04:20:13.296Z,99244.80
2018-05-16T04:21:48.414Z,99244.06
2018-05-16T04:23:23.783Z,99242.36
2018-05-16T04:24:59.670Z,99240.99
2018-05-16T04:26:34.771Z,99242.95
2018-05-16T04:28:09.937Z,99237.73
2018-05-16T04:29:45.061Z,99241.27
2018-05-16T04:31:20.187Z,99238.41
2018-05-16T04:32:55.295Z,99235.91
2018-05-16T04:34:30.847Z,99236.46
2018-05-16T04:36:05.976Z,99229.61
2018-05-16T04:37:41.836Z,99233.89
2018-05-16T04:39:17.048Z,99229.38
2018-05-16T04:40:52.544Z,99234.23
2018-05-16T04:42:27.984Z,99230.65
2018-05-16T04:44:03.995Z,99230.02
2018-05-16T04:45:39.147Z,99229.10
2018-05-16T04:47:15.031Z,99230.28
2018-05-16T04:48:50.924Z,99223.97
2018-05-16T04:50:27.418Z,99235.20
2018-05-16T04:52:03.303Z,99227.02
2018-05-16T04:53:39.187Z,99227.59
2018-05-16T04:55:16.356Z,99234.41
2018-05-16T04:56:52.376Z,99236.70
2018-05-16T04:58:28.649Z,99231.94
2018-05-16T05:00:04.997Z,99232.63
2018-05-16T05:01:40.510Z,99237.69
2018-05-16T05:03:15.652Z,99239.44
2018-05-16T05:04:51.596Z,99244.31
2018-05-16T05:06:26.986Z,99239.02
2018-05-16T05:08:09.590Z,99247.67
2018-05-16T05:09:45.365Z,99244.66
2018-05-16T05:11:21.590Z,99242.17
2018-05-16T05:13:00.598Z,99247.03
2018-05-16T05:14:36.704Z,99251.44
2018-05-16T05:16:12.688Z,99250.28
2018-05-16T05:17:47.801Z,99254.03
2018-05-16T05:19:22.919Z,99248.59
2018-05-16T05:20:58.020Z,99251.25
2018-05-16T05:22:33.926Z,99251.80
2018-05-16T05:24:09.166Z,99245.91
2018-05-16T05:25:45.095Z,99244.53
2018-05-16T05:27:20.902Z,99244.85
2018-05-16T05:28:56.172Z,99242.73
2018-05-16T05:30:32.515Z,99250.64
2018-05-16T05:32:07.853Z,99249.59
2018-05-16T05:33:42.937Z,99244.17
2018-05-16T05:35:18.035Z,99246.47
2018-05-16T05:36:53.204Z,99249.17
2018-05-16T05:38:29.374Z,99250.50
2018-05-16T05:40:04.517Z,99247.42
2018-05-16T05:41:39.983Z,99247.48
2018-05-16T05:43:15.906Z,99245.95
2018-05-16T05:44:51.621Z,99244.73
2018-05-16T05:46:27.131Z,99242.22
2018-05-16T05:48:02.263Z,99245.11
2018-05-16T05:49:37.450Z,99242.59
2018-05-16T05:51:12.586Z,99242.17
2018-05-16T05:52:48.589Z,99239.50
2018-05-16T05:54:23.702Z,99244.23
2018-05-16T05:55:58.838Z,99247.56
2018-05-16T05:57:33.956Z,99246.05
2018-05-16T05:59:11.055Z,99248.96
2018-05-16T06:00:46.986Z,99241.19
2018-05-16T06:02:24.227Z,99251.96
2018-05-16T06:03:59.422Z,99249.42
2018-05-16T06:05:34.849Z,99246.50
2018-05-16T06:07:10.283Z,99245.03
2018-05-16T06:08:45.564Z,99248.73
2018-05-16T06:10:31.419Z,99249.20
2018-05-16T06:12:07.784Z,99258.98
2018-05-16T06:13:43.001Z,99256.23
2018-05-16T06:24:21.767Z,99256.71
2018-05-16T06:25:56.976Z,99259.08
2018-05-16T06:27:32.829Z,99255.80
2018-05-16T06:29:07.940Z,99259.13
2018-05-16T06:30:43.039Z,99256.84
2018-05-16T06:32:18.173Z,99244.96
2018-05-16T06:33:53.282Z,99265.24
2018-05-16T06:35:33.719Z,99262.48
2018-05-16T06:37:14.862Z,99268.11
2018-05-16T06:38:55.205Z,99267.95
2018-05-16T06:40:31.285Z,99276.45
2018-05-16T06:42:07.170Z,99268.89
2018-05-16T06:43:42.736Z,99272.16
2018-05-16T06:45:25.873Z,99273.73
2018-05-16T06:47:00.964Z,99274.52
2018-05-16T06:48:38.288Z,99276.03
2018-05-16T06:50:14.397Z,99278.47
2018-05-16T06:51:49.546Z,99280.27
2018-05-16T06:53:24.651Z,99277.08
2018-05-16T06:55:00.268Z,99289.41
2018-05-16T06:56:36.908Z,99284.51
2018-05-16T06:58:12.788Z,99286.83
2018-05-16T06:59:47.947Z,99288.68
2018-05-16T07:01:23.043Z,99284.75
2018-05-16T07:02:58.143Z,99282.37
2018-05-16T07:04:34.491Z,99277.92
2018-05-16T07:06:17.390Z,99272.88
2018-05-16T07:07:52.604Z,99279.71
2018-05-16T07:09:27.888Z,99284.48
2018-05-16T07:11:03.423Z,99279.03
2018-05-16T07:12:38.654Z,99281.34
2018-05-16T07:14:15.621Z,99278.13
2018-05-16T07:15:51.208Z,99278.42
2018-05-16T07:17:26.395Z,99282.16
2018-05-16T07:19:02.122Z,99278.27
2018-05-16T07:20:37.304Z,99284.82
2018-05-16T07:22:12.421Z,99285.45
2018-05-16T07:23:47.530Z,99285.58
2018-05-16T07:25:22.712Z,99289.38
2018-05-16T07:26:59.053Z,99289.47
2018-05-16T07:28:34.166Z,99292.44
2018-05-16T07:30:09.394Z,99287.45
2018-05-16T07:31:44.517Z,99290.94
2018-05-16T07:33:19.669Z,99291.95
2018-05-16T07:34:54.772Z,99295.38
2018-05-16T07:36:30.780Z,99290.38
2018-05-16T07:38:06.797Z,99289.92
2018-05-16T07:39:43.520Z,99287.33
2018-05-16T07:41:20.716Z,99292.35
2018-05-16T07:42:56.865Z,99283.82
2018-05-16T07:44:32.116Z,99286.26
2018-05-16T07:46:15.484Z,99283.14
2018-05-16T07:47:50.635Z,99287.64
2018-05-16T07:49:26.002Z,99289.67
2018-05-16T07:51:01.174Z,99292.53
2018-05-16T07:52:39.877Z,99302.41
2018-05-16T07:54:15.018Z,99294.69
2018-05-16T07:55:50.272Z,99296.12
2018-05-16T07:57:25.529Z,99281.05
2018-05-16T07:59:28.434Z,99296.02
2018-05-16T08:01:03.753Z,99300.52
2018-05-16T08:02:38.948Z,99292.45
2018-05-16T08:04:14.826Z,99288.55
2018-05-16T08:05:50.045Z,99295.27
2018-05-16T08:07:28.270Z,99292.17
2018-05-16T08:09:04.129Z,99296.44
2018-05-16T08:10:39.741Z,99288.84
2018-05-16T08:12:15.594Z,99286.95
2018-05-16T08:13:50.777Z,99289.78
2018-05-16T08:15:25.914Z,99293.66
2018-05-16T08:17:01.080Z,99291.77
2018-05-16T08:18:37.636Z,99294.86
2018-05-16T08:20:13.632Z,99294.06
2018-05-16T08:21:48.920Z,99299.53
2018-05-16T08:23:49.265Z,99306.25
2018-05-16T08:25:26.784Z,99305.64
2018-05-16T08:27:14.867Z,99305.38
2018-05-16T08:28:50.577Z,99303.95
2018-05-16T08:30:40.430Z,99300.92
2018-05-16T08:32:15.542Z,99303.95
2018-05-16T08:33:50.667Z,99292.84
2018-05-16T08:35:55.757Z,99301.17
2018-05-16T08:37:30.929Z,99298.56
2018-05-16T08:39:07.383Z,99306.97
2018-05-16T08:40:42.747Z,99302.60
2018-05-16T08:42:33.068Z,99300.13
2018-05-16T08:45:52.478Z,99296.55
2018-05-16T08:47:51.448Z,99308.67
2018-05-16T08:49:26.762Z,99297.66
2018-05-16T08:52:49.993Z,99304.34
2018-05-16T08:54:25.787Z,99289.12
2018-05-16T08:56:01.842Z,99314.98
2018-05-16T08:57:37.116Z,99312.46
2018-05-16T08:59:12.541Z,99313.53
2018-05-16T09:10:09.000Z,99315.70
2018-05-16T09:11:46.089Z,99310.02
2018-05-16T09:13:21.552Z,99312.34
2018-05-16T09:14:57.269Z,99311.38
2018-05-16T09:16:32.393Z,99300.30
2018-05-16T09:18:07.915Z,99304.66
2018-05-16T09:19:43.033Z,99303.47
2018-05-16T09:21:18.177Z,99300.91
2018-05-16T09:22:54.003Z,99301.24
2018-05-16T09:24:30.098Z,99308.47
2018-05-16T09:26:05.567Z,99297.58
2018-05-16T09:27:41.853Z,99297.95
2018-05-16T09:29:17.810Z,99299.14
2018-05-16T09:30:53.572Z,99296.91
2018-05-16T09:32:29.705Z,99296.36
2018-05-16T09:34:07.242Z,99301.48
2018-05-16T09:35:43.020Z,99306.27
2018-05-16T09:37:20.066Z,99305.97
2018-05-16T09:39:01.045Z,99305.05
2018-05-16T09:40:42.465Z,99301.44
2018-05-16T09:42:23.770Z,99294.42
2018-05-16T09:44:04.285Z,99297.31
2018-05-16T09:45:50.050Z,99298.45
2018-05-16T09:47:28.600Z,99299.17
2018-05-16T09:49:05.658Z,99292.67
2018-05-16T09:50:43.654Z,99289.78
2018-05-16T09:52:19.598Z,99290.39
2018-05-16T09:54:09.074Z,99287.97
2018-05-16T09:55:56.770Z,99292.06
2018-05-16T10:00:09.328Z,99297.50
2018-05-16T10:01:45.248Z,99291.40
2018-05-16T10:03:20.377Z,99286.39
2018-05-16T10:04:56.113Z,99290.24
2018-05-16T10:06:32.151Z,99292.13
2018-05-16T10:08:08.852Z,99293.09
2018-05-16T10:09:52.656Z,99296.84
2018-05-16T10:11:28.745Z,99298.34
2018-05-16T10:13:06.231Z,99295.35
2018-05-16T10:14:42.097Z,99301.43
2018-05-16T10:16:17.289Z,99306.87
2018-05-16T10:17:52.488Z,99305.19
2018-05-16T10:19:27.963Z,99303.48
2018-05-16T10:21:05.307Z,99305.19
2018-05-16T10:22:42.159Z,99305.03
2018-05-16T10:24:18.281Z,99305.72
2018-05-16T10:25:53.497Z,99310.34
2018-05-16T10:27:31.209Z,99307.11
2018-05-16T10:29:08.218Z,99306.01
2018-05-16T10:30:48.353Z,99300.34
2018-05-16T10:32:24.327Z,99301.30
2018-05-16T10:34:01.638Z,99299.98
2018-05-16T10:35:53.553Z,99303.86
2018-05-16T10:39:40.907Z,99302.34
2018-05-16T10:41:16.797Z,99304.02
2018-05-16T10:42:52.114Z,99307.90
2018-05-16T10:44:28.417Z,99304.41
2018-05-16T10:46:09.486Z,99305.94
2018-05-16T10:47:44.832Z,99308.03
2018-05-16T10:49:20.124Z,99308.30
2018-05-16T10:50:57.512Z,99304.03
2018-05-16T10:52:34.382Z,99310.96
2018-05-16T10:54:16.159Z,99304.82
2018-05-16T10:55:53.486Z,99289.76
2018-05-16T10:57:30.821Z,99306.64
2018-05-16T10:59:06.068Z,99305.38
2018-05-16T16:35:21.942Z,99484.45
2018-05-16T16:36:57.056Z,99295.28
2018-05-16T16:38:35.686Z,99301.80
2018-05-16T16:40:11.330Z,99308.37
2018-05-16T16:41:47.292Z,99893.41
2018-05-16T16:43:22.396Z,111350.45
2018-05-16T16:44:57.545Z,111350.45
2018-05-16T16:46:32.629Z,111350.45
2018-05-16T16:48:07.790Z,111350.45
2018-05-16T16:49:42.915Z,111350.45
2018-05-16T16:51:18.044Z,111350.45
2018-05-16T16:52:53.256Z,111350.45
2018-05-16T16:54:33.897Z,111350.45
2018-05-16T16:56:08.927Z,111350.45
2018-05-16T16:57:44.089Z,111350.45
2018-05-16T16:59:19.220Z,111350.45
2018-05-16T17:00:55.396Z,111350.45
2018-05-16T17:02:30.585Z,111350.45
2018-05-16T17:04:05.714Z,111350.45
2018-05-16T17:05:40.823Z,111350.45
2018-05-16T17:07:16.819Z,111350.45
2018-05-16T17:08:53.019Z,111350.45
2018-05-16T17:10:28.769Z,111350.45
2018-05-16T17:12:03.952Z,111350.45
2018-05-16T17:13:40.538Z,111350.45
2018-05-16T17:15:15.857Z,111350.45
2018-05-16T17:16:51.382Z,111350.45
2018-05-16T17:18:27.619Z,111350.45
2018-05-16T17:20:05.617Z,111350.45
2018-05-16T17:21:42.587Z,111350.45
2018-05-16T17:23:19.236Z,111350.45
2018-05-16T17:24:55.093Z,111350.45
2018-05-16T17:26:31.442Z,111350.45
2018-05-16T17:28:06.647Z,111350.45
2018-05-16T17:29:42.593Z,111350.45
2018-05-16T17:31:19.672Z,111350.45
2018-05-16T17:32:57.195Z,111350.45
2018-05-16T17:34:33.151Z,111350.45
2018-05-16T17:36:09.544Z,111350.45
2018-05-16T17:37:50.741Z,111350.45
2018-05-16T17:39:25.873Z,111350.45
2018-05-16T17:41:00.973Z,111350.45
2018-05-16T17:42:36.120Z,111350.45
2018-05-16T17:44:11.234Z,111350.45
2018-05-16T17:45:47.199Z,111350.45
2018-05-16T17:47:22.637Z,111350.45
2018-05-16T17:49:03.814Z,111350.45
2018-05-16T17:50:39.504Z,111350.45
2018-05-16T17:52:15.844Z,111350.45
2018-05-16T17:53:51.206Z,111350.45
2018-05-16T17:55:30.701Z,111350.45
2018-05-16T17:57:06.435Z,111350.45
2018-05-16T17:58:42.305Z,111350.45
2018-05-16T18:00:18.469Z,111350.45
2018-05-16T18:01:55.486Z,111350.45
2018-05-16T18:03:30.649Z,111350.45
2018-05-16T18:05:06.605Z,111350.45
2018-05-16T18:06:41.788Z,111350.45
2018-05-16T18:08:16.985Z,111350.45
2018-05-16T18:09:52.317Z,111350.45
2018-05-16T18:11:27.440Z,111350.45
